createdAt,value
2022-08-03T00:01:28.091Z,19.55
2022-08-03T00:03:55.175Z,19.51
2022-08-03T00:06:22.615Z,19.47
2022-08-03T00:08:49.766Z,19.43
2022-08-03T00:11:17.121Z,19.42
2022-08-03T00:13:44.116Z,19.40
2022-08-03T00:16:11.180Z,19.34
2022-08-03T00:18:38.544Z,19.30
2022-08-03T00:21:05.511Z,19.26
2022-08-03T00:23:51.293Z,19.20
2022-08-03T00:26:21.632Z,19.18
2022-08-03T00:28:50.091Z,19.17
2022-08-03T00:31:17.950Z,19.14
2022-08-03T00:34:04.422Z,19.08
2022-08-03T00:36:31.437Z,19.07
2022-08-03T00:38:58.483Z,19.04
2022-08-03T00:41:25.426Z,19.02
2022-08-03T00:43:52.474Z,18.97
2022-08-03T00:46:22.113Z,18.91
2022-08-03T00:48:52.576Z,18.88
2022-08-03T00:51:23.489Z,18.86
2022-08-03T00:53:50.670Z,18.86
2022-08-03T00:56:18.123Z,18.82
2022-08-03T00:58:46.391Z,18.78
2022-08-03T01:01:15.919Z,18.73
2022-08-03T01:03:44.672Z,18.68
2022-08-03T01:06:38.177Z,18.65
2022-08-03T01:10:09.268Z,18.67
2022-08-03T01:12:48.383Z,18.65
2022-08-03T01:15:33.441Z,18.66
2022-08-03T01:18:14.325Z,18.67
2022-08-03T01:20:49.236Z,18.64
2022-08-03T01:23:37.874Z,18.57
2022-08-03T01:26:16.799Z,18.56
2022-08-03T01:29:17.522Z,18.54
2022-08-03T01:32:59.007Z,18.53
2022-08-03T01:34:54.808Z,18.52
2022-08-03T01:37:34.734Z,18.51
2022-08-03T01:40:08.799Z,18.51
2022-08-03T01:42:38.013Z,18.57
2022-08-03T01:45:06.985Z,18.65
2022-08-03T01:47:34.661Z,18.67
2022-08-03T01:50:03.642Z,18.65
2022-08-03T01:52:32.434Z,18.62
2022-08-03T01:55:02.588Z,18.61
2022-08-03T01:57:30.785Z,18.59
2022-08-03T02:00:00.739Z,18.53
2022-08-03T02:02:32.615Z,18.51
2022-08-03T02:05:05.447Z,18.54
2022-08-03T02:07:41.330Z,18.61
2022-08-03T02:10:11.191Z,18.67
2022-08-03T02:12:39.596Z,18.65
2022-08-03T02:15:07.977Z,18.62
2022-08-03T02:17:39.486Z,18.60
2022-08-03T02:20:11.744Z,18.60
2022-08-03T02:22:43.357Z,18.59
2022-08-03T02:25:13.271Z,18.50
2022-08-03T02:27:50.969Z,18.43
2022-08-03T02:30:20.271Z,18.45
2022-08-03T02:32:56.739Z,18.45
2022-08-03T02:35:28.234Z,18.46
2022-08-03T02:38:04.763Z,18.46
2022-08-03T02:40:33.068Z,18.40
2022-08-03T02:43:05.259Z,18.33
2022-08-03T02:45:36.358Z,18.30
2022-08-03T02:48:06.450Z,18.28
2022-08-03T02:50:34.695Z,18.27
2022-08-03T02:53:03.648Z,18.23
2022-08-03T02:55:34.617Z,18.20
2022-08-03T02:58:03.472Z,18.09
2022-08-03T03:00:32.807Z,18.00
2022-08-03T03:03:03.979Z,17.94
2022-08-03T03:05:56.453Z,17.94
2022-08-03T03:08:25.922Z,17.88
2022-08-03T03:10:58.930Z,17.85
2022-08-03T03:13:31.182Z,17.87
2022-08-03T03:16:02.156Z,17.84
2022-08-03T03:18:31.444Z,17.77
2022-08-03T03:21:01.134Z,17.69
2022-08-03T03:23:30.148Z,17.71
2022-08-03T03:25:58.448Z,17.76
2022-08-03T03:28:26.267Z,17.78
2022-08-03T03:30:53.848Z,17.77
2022-08-03T03:33:24.407Z,17.72
2022-08-03T03:35:52.247Z,17.77
2022-08-03T03:38:20.098Z,17.79
2022-08-03T03:40:47.951Z,17.82
2022-08-03T03:43:14.890Z,17.89
2022-08-03T03:45:42.694Z,17.99
2022-08-03T03:48:10.490Z,18.12
2022-08-03T03:50:40.438Z,18.31
2022-08-03T03:53:11.832Z,18.49
2022-08-03T03:56:01.550Z,18.62
2022-08-03T03:58:27.767Z,18.71
2022-08-03T04:00:55.029Z,18.73
2022-08-03T04:03:22.065Z,18.71
2022-08-03T04:06:08.467Z,18.74
2022-08-03T04:08:54.671Z,18.82
2022-08-03T04:11:36.122Z,18.91
2022-08-03T04:14:05.901Z,19.02
2022-08-03T04:16:43.153Z,19.16
2022-08-03T04:19:21.184Z,19.29
2022-08-03T04:21:57.189Z,19.36
2022-08-03T04:24:39.086Z,19.37
2022-08-03T04:27:09.927Z,19.53
2022-08-03T04:29:48.386Z,19.65
2022-08-03T04:32:17.454Z,19.75
2022-08-03T04:34:44.818Z,19.78
2022-08-03T04:37:18.383Z,19.87
2022-08-03T04:39:49.401Z,19.95
2022-08-03T04:42:18.561Z,19.98
2022-08-03T04:44:47.243Z,20.19
2022-08-03T04:47:15.531Z,20.43
2022-08-03T04:49:43.217Z,20.59
2022-08-03T04:52:11.015Z,20.72
2022-08-03T04:54:50.675Z,20.76
2022-08-03T04:57:23.143Z,20.73
2022-08-03T04:59:56.844Z,20.73
2022-08-03T05:02:30.570Z,20.76
2022-08-03T05:04:58.242Z,20.87
2022-08-03T05:07:25.458Z,21.00
2022-08-03T05:10:01.357Z,21.15
2022-08-03T05:12:32.710Z,21.25
2022-08-03T05:15:01.333Z,21.33
2022-08-03T05:17:28.496Z,21.46
2022-08-03T05:19:55.836Z,21.49
2022-08-03T05:22:23.166Z,21.51
2022-08-03T05:24:50.095Z,21.54
2022-08-03T05:27:18.867Z,21.51
2022-08-03T05:29:47.342Z,21.46
2022-08-03T05:32:15.517Z,21.36
2022-08-03T05:34:43.565Z,21.27
2022-08-03T05:37:11.188Z,21.19
2022-08-03T05:39:38.046Z,21.15
2022-08-03T05:42:05.023Z,21.19
2022-08-03T05:44:32.018Z,21.31
2022-08-03T05:46:59.457Z,21.42
2022-08-03T05:49:26.467Z,21.52
2022-08-03T05:52:00.261Z,21.63
2022-08-03T05:54:55.389Z,21.78
2022-08-03T05:57:25.354Z,21.90
2022-08-03T05:59:58.162Z,22.00
2022-08-03T06:02:28.602Z,22.15
2022-08-03T06:04:55.487Z,22.27
2022-08-03T06:07:22.455Z,22.40
2022-08-03T06:10:34.910Z,22.53
2022-08-03T06:12:36.819Z,22.62
2022-08-03T06:15:04.957Z,22.74
2022-08-03T06:17:37.262Z,22.91
2022-08-03T06:20:05.999Z,23.05
2022-08-03T06:22:33.122Z,23.15
2022-08-03T06:25:04.923Z,23.28
2022-08-03T06:27:36.629Z,23.39
2022-08-03T06:30:06.847Z,23.44
2022-08-03T06:32:34.495Z,23.53
2022-08-03T06:35:01.383Z,23.64
2022-08-03T06:37:28.705Z,23.77
2022-08-03T06:39:55.582Z,23.90
2022-08-03T06:42:22.680Z,24.02
2022-08-03T06:44:50.793Z,24.14
2022-08-03T06:47:17.620Z,24.23
2022-08-03T06:49:44.689Z,24.36
2022-08-03T06:52:37.807Z,24.50
2022-08-03T06:55:07.027Z,24.59
2022-08-03T06:57:34.072Z,24.65
2022-08-03T07:00:10.656Z,24.64
2022-08-03T07:02:39.422Z,24.66
2022-08-03T07:05:08.762Z,24.67
2022-08-03T07:07:36.234Z,24.64
2022-08-03T07:10:05.491Z,24.60
2022-08-03T07:12:34.089Z,24.65
2022-08-03T07:15:03.639Z,24.65
2022-08-03T07:17:36.368Z,24.70
2022-08-03T07:20:06.491Z,24.78
2022-08-03T07:22:34.935Z,24.77
2022-08-03T07:25:02.195Z,24.81
2022-08-03T07:27:29.771Z,24.90
2022-08-03T07:29:58.143Z,24.92
2022-08-03T07:32:27.877Z,24.93
2022-08-03T07:34:59.949Z,25.02
2022-08-03T07:37:27.927Z,25.09
2022-08-03T07:39:54.786Z,25.06
2022-08-03T07:42:23.647Z,25.11
2022-08-03T07:44:50.593Z,25.11
2022-08-03T07:47:24.995Z,25.13
2022-08-03T07:49:52.164Z,25.28
2022-08-03T07:52:37.806Z,25.39
2022-08-03T07:55:06.838Z,25.49
2022-08-03T07:57:34.747Z,25.61
2022-08-03T08:00:04.899Z,25.70
2022-08-03T08:02:41.812Z,25.79
2022-08-03T08:05:10.501Z,25.87
2022-08-03T08:07:38.932Z,25.93
2022-08-03T08:10:09.335Z,25.98
2022-08-03T08:12:38.459Z,26.02
2022-08-03T08:15:07.971Z,26.08
2022-08-03T08:18:02.025Z,26.07
2022-08-03T08:20:36.550Z,26.04
2022-08-03T08:23:19.973Z,26.04
2022-08-03T08:25:55.702Z,25.98
2022-08-03T08:28:32.765Z,25.99
2022-08-03T08:31:01.724Z,26.03
2022-08-03T08:33:42.231Z,26.04
2022-08-03T08:36:15.999Z,26.06
2022-08-03T08:38:44.761Z,26.09
2022-08-03T08:41:14.500Z,26.10
2022-08-03T08:43:42.731Z,26.10
2022-08-03T08:46:23.434Z,26.12
2022-08-03T08:48:53.338Z,26.10
2022-08-03T08:51:21.775Z,26.06
2022-08-03T08:53:53.341Z,26.06
2022-08-03T08:56:24.812Z,26.07
2022-08-03T08:59:02.396Z,26.08
2022-08-03T09:01:30.711Z,26.07
2022-08-03T09:03:57.646Z,26.08
2022-08-03T09:06:24.679Z,26.10
2022-08-03T09:08:51.850Z,26.13
2022-08-03T09:11:53.721Z,26.18
2022-08-03T09:14:11.235Z,26.28
2022-08-03T09:17:03.699Z,26.28
2022-08-03T09:19:32.781Z,26.26
2022-08-03T09:22:13.619Z,26.25
2022-08-03T09:25:26.607Z,26.24
2022-08-03T09:27:53.689Z,26.24
2022-08-03T09:30:33.821Z,26.24
2022-08-03T09:33:05.790Z,26.24
2022-08-03T09:35:53.118Z,26.31
2022-08-03T09:38:28.104Z,26.39
2022-08-03T09:40:59.984Z,26.45
2022-08-03T09:43:28.369Z,26.52
2022-08-03T09:46:06.932Z,26.64
2022-08-03T09:48:35.191Z,26.77
2022-08-03T09:51:12.779Z,26.88
2022-08-03T09:53:57.069Z,26.90
2022-08-03T09:56:45.503Z,26.93
2022-08-03T09:59:27.296Z,26.98
2022-08-03T10:01:56.384Z,27.01
2022-08-03T10:04:24.543Z,27.02
2022-08-03T10:07:06.495Z,27.06
2022-08-03T10:09:33.926Z,27.16
2022-08-03T10:12:13.563Z,27.25
2022-08-03T10:14:44.706Z,27.31
2022-08-03T10:17:12.532Z,27.29
2022-08-03T10:19:43.545Z,27.24
2022-08-03T10:22:26.717Z,27.25
2022-08-03T10:25:02.128Z,27.30
2022-08-03T10:27:36.642Z,27.42
2022-08-03T10:30:08.688Z,27.50
2022-08-03T10:32:57.042Z,27.46
2022-08-03T10:35:24.995Z,27.45
2022-08-03T10:37:58.942Z,27.47
2022-08-03T10:40:48.285Z,27.50
2022-08-03T10:44:12.874Z,27.47
2022-08-03T10:46:44.997Z,27.44
2022-08-03T10:49:16.974Z,27.45
2022-08-03T10:52:02.646Z,27.47
2022-08-03T10:54:57.883Z,27.53
2022-08-03T10:57:58.887Z,27.59
2022-08-03T11:00:29.832Z,27.64
2022-08-03T11:03:15.663Z,27.67
2022-08-03T11:05:53.891Z,27.64
2022-08-03T11:08:36.643Z,27.63
2022-08-03T11:11:18.701Z,27.65
2022-08-03T11:14:04.083Z,27.69
2022-08-03T11:17:02.461Z,27.68
2022-08-03T11:19:57.432Z,27.65
2022-08-03T11:22:45.430Z,27.63
2022-08-03T11:25:53.893Z,27.66
2022-08-03T11:28:38.592Z,27.67
2022-08-03T11:31:48.609Z,27.69
2022-08-03T11:34:14.681Z,27.69
2022-08-03T11:37:27.266Z,27.71
2022-08-03T11:39:57.046Z,27.84
2022-08-03T11:42:24.051Z,27.97
2022-08-03T11:44:51.912Z,28.05
2022-08-03T11:47:21.372Z,28.11
2022-08-03T11:49:50.373Z,28.13
2022-08-03T11:52:18.894Z,28.14
2022-08-03T11:54:46.352Z,28.18
2022-08-03T11:59:02.706Z,28.20
2022-08-03T12:00:28.884Z,28.16
2022-08-03T12:03:13.835Z,28.15
2022-08-03T12:05:51.732Z,28.20
2022-08-03T12:08:28.127Z,28.19
2022-08-03T12:10:57.323Z,28.13
2022-08-03T12:14:44.892Z,28.04
2022-08-03T12:16:22.474Z,27.97
2022-08-03T12:19:01.326Z,27.98
2022-08-03T12:21:29.317Z,28.06
2022-08-03T12:24:02.272Z,28.17
2022-08-03T12:26:43.144Z,28.23
2022-08-03T12:29:21.209Z,28.29
2022-08-03T12:31:48.974Z,28.29
2022-08-03T12:34:15.920Z,28.27
2022-08-03T12:36:56.385Z,28.28
2022-08-03T12:39:27.324Z,28.30
2022-08-03T12:41:56.299Z,28.34
2022-08-03T12:44:35.542Z,28.33
2022-08-03T12:47:06.286Z,28.29
2022-08-03T12:49:48.388Z,28.25
2022-08-03T12:52:17.626Z,28.27
2022-08-03T12:54:59.474Z,28.29
2022-08-03T12:57:42.435Z,28.34
2022-08-03T13:00:21.742Z,28.48
2022-08-03T13:05:55.161Z,28.74
2022-08-03T13:08:24.813Z,28.76
2022-08-03T13:10:52.227Z,28.70
2022-08-03T13:13:39.127Z,28.64
2022-08-03T13:16:17.220Z,28.58
2022-08-03T13:18:46.648Z,28.58
2022-08-03T13:21:20.203Z,28.61
2022-08-03T13:23:47.713Z,28.69
2022-08-03T13:26:14.864Z,28.79
2022-08-03T13:28:41.912Z,28.88
2022-08-03T13:31:08.822Z,28.98
2022-08-03T13:33:36.021Z,29.07
2022-08-03T13:36:03.139Z,29.17
2022-08-03T13:38:30.004Z,29.23
2022-08-03T13:41:00.371Z,29.27
2022-08-03T13:43:31.920Z,29.33
2022-08-03T13:45:58.842Z,29.40
2022-08-03T13:48:37.115Z,29.41
2022-08-03T13:51:11.753Z,29.46
2022-08-03T13:53:51.847Z,29.52
2022-08-03T13:56:18.864Z,29.58
2022-08-03T13:58:45.915Z,29.60
2022-08-03T14:01:13.121Z,29.62
2022-08-03T14:03:40.218Z,29.63
2022-08-03T14:06:07.778Z,29.62
2022-08-03T14:08:35.236Z,29.54
2022-08-03T14:11:03.422Z,29.45
2022-08-03T14:13:30.358Z,29.36
2022-08-03T14:15:57.406Z,29.26
2022-08-03T14:18:28.346Z,29.23
2022-08-03T14:21:05.520Z,29.21
2022-08-03T14:23:36.812Z,29.23
2022-08-03T14:26:06.039Z,29.23
2022-08-03T14:28:33.539Z,29.21
2022-08-03T14:31:01.610Z,29.16
2022-08-03T14:33:28.764Z,29.14
2022-08-03T14:35:56.119Z,29.10
2022-08-03T14:38:23.984Z,29.07
2022-08-03T14:40:51.548Z,29.06
2022-08-03T14:43:20.745Z,29.03
2022-08-03T14:45:51.763Z,29.03
2022-08-03T14:50:33.382Z,29.01
2022-08-03T14:51:08.728Z,28.95
2022-08-03T14:53:35.770Z,28.93
2022-08-03T14:56:07.808Z,28.90
2022-08-03T14:58:37.584Z,28.87
2022-08-03T15:02:01.749Z,28.83
2022-08-03T15:03:51.508Z,28.77
2022-08-03T15:06:18.558Z,28.71
2022-08-03T15:08:55.506Z,28.68
2022-08-03T15:11:32.658Z,28.62
2022-08-03T15:13:59.580Z,28.61
2022-08-03T15:16:29.843Z,28.61
2022-08-03T15:18:57.657Z,28.61
2022-08-03T15:21:46.560Z,28.61
2022-08-03T15:24:11.517Z,28.60
2022-08-03T15:26:41.542Z,28.60
2022-08-03T15:29:08.995Z,28.56
2022-08-03T15:31:56.010Z,28.52
2022-08-03T15:34:23.060Z,28.49
2022-08-03T15:36:50.006Z,28.45
2022-08-03T15:39:17.464Z,28.42
2022-08-03T15:41:44.715Z,28.40
2022-08-03T15:44:11.866Z,28.37
2022-08-03T15:46:39.222Z,28.35
2022-08-03T15:49:06.272Z,28.33
2022-08-03T15:51:33.250Z,28.32
2022-08-03T15:54:00.165Z,28.29
2022-08-03T15:56:27.168Z,28.25
2022-08-03T15:59:04.957Z,28.23
2022-08-03T16:01:41.570Z,28.20
2022-08-03T16:04:08.836Z,28.18
2022-08-03T16:06:36.549Z,28.16
2022-08-03T16:09:22.970Z,28.16
2022-08-03T16:11:51.382Z,28.14
2022-08-03T16:14:34.839Z,28.12
2022-08-03T16:17:05.347Z,28.09
2022-08-03T16:19:32.700Z,28.06
2022-08-03T16:22:00.868Z,28.04
2022-08-03T16:24:28.364Z,28.01
2022-08-03T16:26:56.514Z,27.97
2022-08-03T16:29:24.025Z,27.93
2022-08-03T16:31:52.697Z,27.91
2022-08-03T16:34:20.729Z,27.88
2022-08-03T16:36:47.908Z,27.85
2022-08-03T16:39:15.143Z,27.81
2022-08-03T16:41:54.208Z,27.78
2022-08-03T16:44:30.592Z,27.73
2022-08-03T16:46:58.973Z,27.68
2022-08-03T16:49:54.392Z,27.64
2022-08-03T16:52:13.486Z,27.58
2022-08-03T16:54:40.632Z,27.53
2022-08-03T16:57:08.657Z,27.48
2022-08-03T16:59:36.558Z,27.43
2022-08-03T17:02:09.900Z,27.38
2022-08-03T17:04:47.370Z,27.32
2022-08-03T17:07:14.413Z,27.27
2022-08-03T17:09:42.794Z,27.21
2022-08-03T17:12:12.545Z,27.14
2022-08-03T17:14:40.915Z,27.09
2022-08-03T17:17:47.689Z,27.04
2022-08-03T17:20:19.423Z,26.95
2022-08-03T17:23:15.842Z,26.87
2022-08-03T17:26:02.082Z,26.78
2022-08-03T17:28:48.252Z,26.71
2022-08-03T17:31:23.536Z,26.62
2022-08-03T17:34:00.712Z,26.54
2022-08-03T17:36:47.523Z,26.47
2022-08-03T17:39:17.982Z,26.39
2022-08-03T17:44:46.202Z,26.20
2022-08-03T17:47:14.394Z,26.14
2022-08-03T17:49:46.289Z,26.08
2022-08-03T17:52:34.528Z,26.01
2022-08-03T17:55:56.225Z,25.92
2022-08-03T17:58:18.615Z,25.84
2022-08-03T18:04:02.573Z,25.66
2022-08-03T18:06:56.323Z,25.58
2022-08-03T18:10:06.523Z,25.52
2022-08-03T18:12:28.823Z,25.42
2022-08-03T18:15:07.815Z,25.34
2022-08-03T18:17:58.049Z,25.25
2022-08-03T18:20:34.049Z,25.17
2022-08-03T18:23:10.315Z,25.09
2022-08-03T18:25:45.479Z,25.00
2022-08-03T18:28:18.834Z,24.92
2022-08-03T18:30:53.688Z,24.84
2022-08-03T18:34:19.464Z,24.75
2022-08-03T18:36:29.398Z,24.66
2022-08-03T18:39:00.500Z,24.56
2022-08-03T18:41:32.994Z,24.45
2022-08-03T18:44:08.185Z,24.36
2022-08-03T18:46:48.712Z,24.25
2022-08-03T18:49:30.815Z,24.11
2022-08-03T18:52:17.319Z,24.01
2022-08-03T18:55:02.675Z,23.93
2022-08-03T18:57:48.970Z,23.85
2022-08-03T19:00:24.355Z,23.79
2022-08-03T19:03:06.747Z,23.77
2022-08-03T19:06:02.206Z,23.71
2022-08-03T19:08:48.566Z,23.63
2022-08-03T19:12:13.273Z,23.57
2022-08-03T19:14:45.103Z,23.51
2022-08-03T19:17:13.607Z,23.47
2022-08-03T19:19:45.503Z,23.43
2022-08-03T19:22:16.338Z,23.41
2022-08-03T19:24:46.322Z,23.38
2022-08-03T19:27:16.112Z,23.35
2022-08-03T19:30:14.094Z,23.36
2022-08-03T19:32:49.965Z,23.36
2022-08-03T19:38:04.288Z,23.33
2022-08-03T19:40:33.743Z,23.30
2022-08-03T19:43:33.107Z,23.25
2022-08-03T19:46:20.165Z,23.22
2022-08-03T19:48:58.068Z,23.17
2022-08-03T19:52:01.057Z,23.12
2022-08-03T19:54:29.365Z,23.05
2022-08-03T19:56:58.537Z,22.97
2022-08-03T19:59:26.542Z,22.90
2022-08-03T20:01:53.964Z,22.83
2022-08-03T20:04:21.729Z,22.76
2022-08-03T20:06:49.775Z,22.72
2022-08-03T20:09:19.180Z,22.68
2022-08-03T20:11:48.206Z,22.65
2022-08-03T20:14:20.675Z,22.64
2022-08-03T20:16:53.742Z,22.60
2022-08-03T20:19:21.135Z,22.52
2022-08-03T20:21:50.440Z,22.47
2022-08-03T20:24:28.715Z,22.44
2022-08-03T20:27:03.565Z,22.35
2022-08-03T20:30:07.265Z,22.25
2022-08-03T20:32:34.423Z,22.18
2022-08-03T20:35:01.781Z,22.09
2022-08-03T20:37:30.479Z,22.05
2022-08-03T20:39:58.094Z,22.05
2022-08-03T20:42:25.057Z,22.04
2022-08-03T20:45:06.050Z,22.03
2022-08-03T20:47:35.902Z,21.98
2022-08-03T20:50:04.345Z,21.91
2022-08-03T20:52:49.370Z,21.83
2022-08-03T20:55:18.420Z,21.76
2022-08-03T21:00:34.625Z,21.64
2022-08-03T21:03:01.668Z,21.61
2022-08-03T21:05:31.127Z,21.59
2022-08-03T21:08:15.747Z,21.56
2022-08-03T21:10:44.993Z,21.52
2022-08-03T21:12:54.737Z,26.29
2022-08-03T21:12:56.255Z,25.75
2022-08-03T21:13:09.235Z,23.37
2022-08-03T21:13:12.045Z,21.72
2022-08-03T21:13:38.821Z,21.39
2022-08-03T21:16:14.629Z,21.29
2022-08-03T21:18:51.345Z,21.20
2022-08-03T21:21:22.389Z,21.11
2022-08-03T21:23:54.518Z,21.06
2022-08-03T21:26:25.023Z,21.02
2022-08-03T21:28:55.285Z,20.94
2022-08-03T21:31:25.577Z,20.91
2022-08-03T21:34:00.551Z,20.90
2022-08-03T21:36:34.745Z,20.90
2022-08-03T21:39:04.450Z,20.89
2022-08-03T21:41:32.369Z,20.89
2022-08-03T21:44:00.809Z,20.85
2022-08-03T21:46:34.692Z,20.76
2022-08-03T21:50:07.444Z,20.74
2022-08-03T21:51:58.988Z,20.78
2022-08-03T21:54:41.511Z,20.74
2022-08-03T21:57:23.044Z,20.73
2022-08-03T21:59:56.555Z,20.68
2022-08-03T22:02:30.143Z,20.66
2022-08-03T22:04:59.255Z,20.61
2022-08-03T22:07:29.187Z,20.56
2022-08-03T22:09:59.026Z,20.55
2022-08-03T22:12:30.279Z,20.53
2022-08-03T22:15:01.789Z,20.47
2022-08-03T22:17:54.710Z,20.41
2022-08-03T22:20:22.915Z,20.33
2022-08-03T22:22:55.949Z,20.31
2022-08-03T22:25:33.838Z,20.30
2022-08-03T22:28:06.591Z,20.29
2022-08-03T22:30:35.585Z,20.22
2022-08-03T22:33:11.719Z,20.15
2022-08-03T22:35:47.968Z,20.10
2022-08-03T22:38:17.870Z,20.03
2022-08-03T22:40:47.889Z,19.98
2022-08-03T22:43:15.096Z,19.88
2022-08-03T22:46:09.247Z,19.84
2022-08-03T22:48:40.721Z,19.83
2022-08-03T22:51:09.111Z,19.82
2022-08-03T22:53:36.362Z,19.79
2022-08-03T22:56:04.687Z,19.75
2022-08-03T22:58:31.688Z,19.77
2022-08-03T23:01:06.679Z,19.76
2022-08-03T23:04:01.221Z,19.76
2022-08-03T23:06:40.757Z,19.72
2022-08-03T23:09:12.970Z,19.68
2022-08-03T23:11:46.162Z,19.62
2022-08-03T23:14:18.038Z,19.55
2022-08-03T23:16:47.046Z,19.52
2022-08-03T23:19:25.357Z,19.54
2022-08-03T23:22:02.571Z,19.51
2022-08-03T23:24:35.459Z,19.42
2022-08-03T23:27:07.530Z,19.27
2022-08-03T23:29:41.697Z,19.20
2022-08-03T23:32:09.816Z,19.15
2022-08-03T23:34:58.182Z,19.17
2022-08-03T23:37:26.133Z,19.13
2022-08-03T23:39:56.547Z,19.07
2022-08-03T23:42:23.920Z,19.02
2022-08-03T23:44:55.991Z,18.91
2022-08-03T23:47:24.383Z,18.85
2022-08-03T23:50:12.304Z,18.80
2022-08-03T23:53:09.761Z,18.69
2022-08-03T23:56:10.397Z,18.66
2022-08-03T23:58:52.191Z,18.67
